Аэропорт: Сургут. Сургут

ICAO: USRR

METAR:
2018/09/23 11:00
USRR 231100Z 31005MPS CAVOK 13/09 Q1012 R25/CLRD60 NOSIG RMK QFE753
METAR:
2018/09/23 09:24
TAF USRR 230755Z 2309/2409 33003MPS 9999 SCT015 
      TEMPO 2309/2315 SCT005 
      BECMG 2315/2317 24003MPS 
      TEMPO 2317/2324 0800 FG VV002